Jacksonville, FL (32205)

4:26 PM EDT on April 26, 2015 (GMT -0400)
Lakeshore | | Change Station
CLOSE
Current Station
Personal Weather Station
Location: Jacksonville, FL
Elevation: 25 ft
Nearby Weather Stations

Elev 25 ft 30.30 °N, 81.73 °W | Updated 0 second ago

Partly Cloudy
Partly Cloudy
88.2 °F
Feels Like 90 °F
N
1.5
Wind Variable Wind from SSW
Gusts 6.9 mph

Today
High -- | Low -- °F
--% Chance of Precip.
Yesterday
High -- | Low -- °F
Precip. -- in
6:48 AM 8:01 PM
First Quarter, 58% visible
Pressure 29.66 in
Visibility 10.0 miles
Clouds Few 6500 ft
Mostly Cloudy 9000 ft
Mostly Cloudy 25000 ft
Heat Index 90 °F
Dew Point 65 °F
Humidity 47%
Rainfall 0.00 in
Snow Depth Not available.
UV 5 out of 12
Pollen 6.00 out of 12
Air Quality Not available.
Flu Activity Local Activity
METAR KNIP 261953Z 27011G21KT 10SM FEW065 BKN090 BKN250 34/17 A2968 RMK AO2 SLP044 T03390167

More Conditions Fewer Conditions

Pressure 29.66 in
Visibility 10.0 miles
Clouds Few 6500 ft
Mostly Cloudy 9000 ft
Mostly Cloudy 25000 ft
Heat Index 90 °F
Dew Point 65 °F
Humidity 47%
Rainfall 0.00 in
Snow Depth Not available.
UV 5 out of 12
Pollen 6.00 out of 12
Air Quality Not available.
Flu Activity Local Activity
METAR KNIP 261953Z 27011G21KT 10SM FEW065 BKN090 BKN250 34/17 A2968 RMK AO2 SLP044 T03390167

More Conditions Fewer Conditions

The full scope of the disaster following a powerful 7.8-magnitude earthquake in Nepal may not come into view for days, but global charities are already sending emergency aid. Click to see how you can help.

10-Day Weather Forecast

Almanac

Astronomy

Apr. 26, 2015 Rise Set
Actual Time
Civil Twilight
Nautical Twilight
Astronomical Twilight
Moon
Length of Visible Light
Length of Day
Tomorrow will be .
, % of the Moon is Illuminated

Today's Extremes

State Highs State Lows

Community

WunderPhotos

Upload Photos

1,817,109 photos uploaded!

WunderBlogs® & News

Nearby

Air Quality

  Air Quality AQ Index Pollutant
Not available.

Snow Depth

Station Depth Elevation

Earthquake Activity

City Distance Mag. Time & Date
Minimum magnitude displayed is 2.5.

Coastal Water Temperatures

Place Temperature

Stations

Nearby Weather Stations

Station Location Temp. Windchill Dew Point Humidity Wind Precip. Elev Updated Type